sensor_id;sensor_type;location;lat;lon;timestamp;P1;durP1;ratioP1;P2;durP2;ratioP2
7515;SDS011;3799;47.184;8.538;2023-07-24T00:02:04;14.48;;;6.90;;
7515;SDS011;3799;47.184;8.538;2023-07-24T00:04:32;14.52;;;7.47;;
7515;SDS011;3799;47.184;8.538;2023-07-24T00:07:00;14.50;;;7.57;;
7515;SDS011;3799;47.184;8.538;2023-07-24T00:09:27;13.00;;;7.05;;
7515;SDS011;3799;47.184;8.538;2023-07-24T00:14:24;12.75;;;6.63;;
7515;SDS011;3799;47.184;8.538;2023-07-24T00:16:52;15.90;;;6.57;;
7515;SDS011;3799;47.184;8.538;2023-07-24T00:19:19;13.98;;;6.65;;
7515;SDS011;3799;47.184;8.538;2023-07-24T00:21:46;14.18;;;6.55;;
7515;SDS011;3799;47.184;8.538;2023-07-24T00:24:14;14.20;;;7.28;;
7515;SDS011;3799;47.184;8.538;2023-07-24T00:26:41;14.38;;;6.65;;
7515;SDS011;3799;47.184;8.538;2023-07-24T00:29:08;13.23;;;6.80;;
7515;SDS011;3799;47.184;8.538;2023-07-24T00:31:35;14.05;;;7.00;;
7515;SDS011;3799;47.184;8.538;2023-07-24T00:34:03;15.32;;;7.50;;
7515;SDS011;3799;47.184;8.538;2023-07-24T00:36:30;11.82;;;6.80;;
7515;SDS011;3799;47.184;8.538;2023-07-24T00:38:58;13.80;;;6.93;;
7515;SDS011;3799;47.184;8.538;2023-07-24T00:41:25;12.65;;;6.72;;
7515;SDS011;3799;47.184;8.538;2023-07-24T00:43:52;13.18;;;7.15;;
7515;SDS011;3799;47.184;8.538;2023-07-24T00:46:19;14.63;;;7.53;;
7515;SDS011;3799;47.184;8.538;2023-07-24T00:48:47;12.93;;;6.80;;
7515;SDS011;3799;47.184;8.538;2023-07-24T00:51:15;14.65;;;7.45;;
7515;SDS011;3799;47.184;8.538;2023-07-24T00:53:43;14.88;;;7.15;;
7515;SDS011;3799;47.184;8.538;2023-07-24T00:56:11;14.52;;;7.20;;
7515;SDS011;3799;47.184;8.538;2023-07-24T00:58:38;16.38;;;7.20;;
7515;SDS011;3799;47.184;8.538;2023-07-24T01:01:05;13.07;;;7.03;;
7515;SDS011;3799;47.184;8.538;2023-07-24T01:03:34;12.63;;;6.82;;
7515;SDS011;3799;47.184;8.538;2023-07-24T01:06:04;15.02;;;7.13;;
7515;SDS011;3799;47.184;8.538;2023-07-24T01:08:34;13.52;;;7.35;;
7515;SDS011;3799;47.184;8.538;2023-07-24T01:11:33;12.02;;;7.07;;
7515;SDS011;3799;47.184;8.538;2023-07-24T01:14:11;13.75;;;7.13;;
7515;SDS011;3799;47.184;8.538;2023-07-24T01:16:44;15.57;;;7.30;;
7515;SDS011;3799;47.184;8.538;2023-07-24T01:27:45;12.95;;;6.55;;
7515;SDS011;3799;47.184;8.538;2023-07-24T01:30:17;12.07;;;6.68;;
7515;SDS011;3799;47.184;8.538;2023-07-24T01:32:45;13.30;;;6.88;;
7515;SDS011;3799;47.184;8.538;2023-07-24T01:35:13;12.82;;;7.10;;
7515;SDS011;3799;47.184;8.538;2023-07-24T01:37:41;10.55;;;5.97;;
7515;SDS011;3799;47.184;8.538;2023-07-24T01:40:11;14.88;;;7.85;;
7515;SDS011;3799;47.184;8.538;2023-07-24T01:42:39;11.98;;;6.32;;
7515;SDS011;3799;47.184;8.538;2023-07-24T01:45:07;13.90;;;6.22;;
7515;SDS011;3799;47.184;8.538;2023-07-24T01:47:35;13.68;;;7.20;;
7515;SDS011;3799;47.184;8.538;2023-07-24T01:50:03;12.13;;;6.55;;
7515;SDS011;3799;47.184;8.538;2023-07-24T01:52:31;12.88;;;6.43;;
7515;SDS011;3799;47.184;8.538;2023-07-24T01:55:01;12.38;;;5.97;;
7515;SDS011;3799;47.184;8.538;2023-07-24T01:57:28;12.30;;;6.28;;
7515;SDS011;3799;47.184;8.538;2023-07-24T01:59:55;11.75;;;6.13;;
7515;SDS011;3799;47.184;8.538;2023-07-24T02:02:23;10.15;;;5.50;;
7515;SDS011;3799;47.184;8.538;2023-07-24T02:04:51;16.48;;;6.35;;
7515;SDS011;3799;47.184;8.538;2023-07-24T02:07:18;10.68;;;5.78;;
7515;SDS011;3799;47.184;8.538;2023-07-24T02:09:46;12.02;;;5.43;;
7515;SDS011;3799;47.184;8.538;2023-07-24T02:12:13;10.57;;;5.32;;
7515;SDS011;3799;47.184;8.538;2023-07-24T02:14:40;12.60;;;5.70;;
7515;SDS011;3799;47.184;8.538;2023-07-24T02:17:08;11.30;;;5.97;;
7515;SDS011;3799;47.184;8.538;2023-07-24T02:19:35;10.23;;;5.68;;
7515;SDS011;3799;47.184;8.538;2023-07-24T02:22:03;11.35;;;6.30;;
7515;SDS011;3799;47.184;8.538;2023-07-24T02:24:30;11.07;;;5.68;;
7515;SDS011;3799;47.184;8.538;2023-07-24T02:26:58;13.82;;;6.57;;
7515;SDS011;3799;47.184;8.538;2023-07-24T02:29:25;13.93;;;6.50;;
7515;SDS011;3799;47.184;8.538;2023-07-24T02:31:53;9.80;;;5.63;;
7515;SDS011;3799;47.184;8.538;2023-07-24T02:34:21;12.07;;;6.28;;
7515;SDS011;3799;47.184;8.538;2023-07-24T02:36:54;13.73;;;6.55;;
7515;SDS011;3799;47.184;8.538;2023-07-24T02:39:22;12.27;;;6.35;;
7515;SDS011;3799;47.184;8.538;2023-07-24T02:41:49;10.88;;;5.80;;
7515;SDS011;3799;47.184;8.538;2023-07-24T02:44:16;12.57;;;6.03;;
7515;SDS011;3799;47.184;8.538;2023-07-24T02:46:43;14.07;;;6.22;;
7515;SDS011;3799;47.184;8.538;2023-07-24T02:49:10;11.57;;;6.15;;
7515;SDS011;3799;47.184;8.538;2023-07-24T02:51:38;14.60;;;6.53;;
7515;SDS011;3799;47.184;8.538;2023-07-24T02:54:11;13.45;;;6.28;;
7515;SDS011;3799;47.184;8.538;2023-07-24T02:56:38;12.50;;;6.13;;
7515;SDS011;3799;47.184;8.538;2023-07-24T02:59:06;11.98;;;6.20;;
7515;SDS011;3799;47.184;8.538;2023-07-24T03:01:36;13.35;;;7.03;;
7515;SDS011;3799;47.184;8.538;2023-07-24T03:04:04;12.35;;;6.20;;
7515;SDS011;3799;47.184;8.538;2023-07-24T03:06:32;13.73;;;7.30;;
7515;SDS011;3799;47.184;8.538;2023-07-24T03:08:59;14.43;;;7.45;;
7515;SDS011;3799;47.184;8.538;2023-07-24T03:11:27;13.40;;;6.20;;
7515;SDS011;3799;47.184;8.538;2023-07-24T03:13:54;13.30;;;6.32;;
7515;SDS011;3799;47.184;8.538;2023-07-24T03:16:21;14.52;;;6.68;;
7515;SDS011;3799;47.184;8.538;2023-07-24T03:18:48;16.15;;;7.43;;
7515;SDS011;3799;47.184;8.538;2023-07-24T03:21:15;11.00;;;6.25;;
7515;SDS011;3799;47.184;8.538;2023-07-24T03:23:43;11.95;;;7.05;;
7515;SDS011;3799;47.184;8.538;2023-07-24T03:26:10;16.17;;;7.53;;
7515;SDS011;3799;47.184;8.538;2023-07-24T03:28:37;13.80;;;7.28;;
7515;SDS011;3799;47.184;8.538;2023-07-24T03:31:04;14.15;;;7.07;;
7515;SDS011;3799;47.184;8.538;2023-07-24T03:33:31;13.85;;;6.97;;
7515;SDS011;3799;47.184;8.538;2023-07-24T03:36:01;15.23;;;7.53;;
7515;SDS011;3799;47.184;8.538;2023-07-24T03:38:28;11.48;;;6.50;;
7515;SDS011;3799;47.184;8.538;2023-07-24T03:40:55;14.45;;;6.70;;
7515;SDS011;3799;47.184;8.538;2023-07-24T03:43:22;14.27;;;6.70;;
7515;SDS011;3799;47.184;8.538;2023-07-24T03:45:50;11.20;;;6.13;;
7515;SDS011;3799;47.184;8.538;2023-07-24T03:48:25;12.10;;;5.97;;
7515;SDS011;3799;47.184;8.538;2023-07-24T03:50:58;11.57;;;5.95;;
7515;SDS011;3799;47.184;8.538;2023-07-24T03:53:26;12.13;;;6.35;;
7515;SDS011;3799;47.184;8.538;2023-07-24T03:55:53;12.52;;;6.63;;
7515;SDS011;3799;47.184;8.538;2023-07-24T03:58:21;11.70;;;5.70;;
7515;SDS011;3799;47.184;8.538;2023-07-24T04:00:48;12.13;;;6.35;;
7515;SDS011;3799;47.184;8.538;2023-07-24T04:03:15;11.75;;;6.00;;
7515;SDS011;3799;47.184;8.538;2023-07-24T04:05:43;13.15;;;6.68;;
7515;SDS011;3799;47.184;8.538;2023-07-24T04:10:40;12.07;;;6.63;;
7515;SDS011;3799;47.184;8.538;2023-07-24T04:13:07;12.38;;;5.85;;
7515;SDS011;3799;47.184;8.538;2023-07-24T04:15:34;11.85;;;5.90;;
7515;SDS011;3799;47.184;8.538;2023-07-24T04:18:05;13.80;;;7.00;;
7515;SDS011;3799;47.184;8.538;2023-07-24T04:20:33;11.02;;;6.00;;
7515;SDS011;3799;47.184;8.538;2023-07-24T04:23:00;12.25;;;6.72;;
7515;SDS011;3799;47.184;8.538;2023-07-24T04:25:27;13.02;;;6.00;;
7515;SDS011;3799;47.184;8.538;2023-07-24T04:27:54;14.88;;;7.70;;
7515;SDS011;3799;47.184;8.538;2023-07-24T04:30:21;12.13;;;6.78;;
7515;SDS011;3799;47.184;8.538;2023-07-24T04:32:49;15.30;;;6.63;;
7515;SDS011;3799;47.184;8.538;2023-07-24T04:35:17;12.98;;;7.43;;
7515;SDS011;3799;47.184;8.538;2023-07-24T04:37:44;13.23;;;6.90;;
7515;SDS011;3799;47.184;8.538;2023-07-24T04:40:11;10.35;;;5.75;;
7515;SDS011;3799;47.184;8.538;2023-07-24T04:42:39;13.23;;;6.25;;
7515;SDS011;3799;47.184;8.538;2023-07-24T04:45:06;11.93;;;5.40;;
7515;SDS011;3799;47.184;8.538;2023-07-24T04:47:37;12.35;;;6.20;;
7515;SDS011;3799;47.184;8.538;2023-07-24T04:50:05;12.32;;;6.25;;
7515;SDS011;3799;47.184;8.538;2023-07-24T04:52:33;11.45;;;6.05;;
7515;SDS011;3799;47.184;8.538;2023-07-24T04:55:00;13.98;;;6.10;;
7515;SDS011;3799;47.184;8.538;2023-07-24T04:57:27;10.90;;;5.82;;
7515;SDS011;3799;47.184;8.538;2023-07-24T04:59:55;13.38;;;5.97;;
7515;SDS011;3799;47.184;8.538;2023-07-24T05:02:22;13.10;;;5.82;;
7515;SDS011;3799;47.184;8.538;2023-07-24T05:04:52;11.93;;;5.57;;
7515;SDS011;3799;47.184;8.538;2023-07-24T05:07:20;12.73;;;6.28;;
7515;SDS011;3799;47.184;8.538;2023-07-24T05:09:47;12.38;;;6.07;;
7515;SDS011;3799;47.184;8.538;2023-07-24T05:12:14;12.20;;;6.25;;
7515;SDS011;3799;47.184;8.538;2023-07-24T05:14:41;10.35;;;5.35;;
7515;SDS011;3799;47.184;8.538;2023-07-24T05:17:09;10.38;;;6.38;;
7515;SDS011;3799;47.184;8.538;2023-07-24T05:19:36;10.13;;;4.85;;
7515;SDS011;3799;47.184;8.538;2023-07-24T05:22:05;11.07;;;5.15;;
7515;SDS011;3799;47.184;8.538;2023-07-24T05:24:32;8.60;;;4.75;;
7515;SDS011;3799;47.184;8.538;2023-07-24T05:26:59;11.32;;;5.07;;
7515;SDS011;3799;47.184;8.538;2023-07-24T05:29:29;9.57;;;5.20;;
7515;SDS011;3799;47.184;8.538;2023-07-24T05:31:56;11.18;;;4.82;;
7515;SDS011;3799;47.184;8.538;2023-07-24T05:34:25;9.68;;;4.68;;
7515;SDS011;3799;47.184;8.538;2023-07-24T05:36:52;10.98;;;4.97;;
7515;SDS011;3799;47.184;8.538;2023-07-24T05:39:26;8.43;;;4.25;;
7515;SDS011;3799;47.184;8.538;2023-07-24T05:41:55;12.07;;;5.47;;
7515;SDS011;3799;47.184;8.538;2023-07-24T05:44:23;11.02;;;4.47;;
7515;SDS011;3799;47.184;8.538;2023-07-24T05:46:50;8.20;;;4.03;;
7515;SDS011;3799;47.184;8.538;2023-07-24T05:49:18;9.68;;;4.68;;
7515;SDS011;3799;47.184;8.538;2023-07-24T05:51:45;10.40;;;4.72;;
7515;SDS011;3799;47.184;8.538;2023-07-24T05:54:12;9.48;;;4.38;;
7515;SDS011;3799;47.184;8.538;2023-07-24T05:56:39;9.45;;;4.45;;
7515;SDS011;3799;47.184;8.538;2023-07-24T05:59:06;8.57;;;3.85;;
7515;SDS011;3799;47.184;8.538;2023-07-24T06:01:34;10.07;;;4.25;;
7515;SDS011;3799;47.184;8.538;2023-07-24T06:04:01;8.65;;;3.75;;
7515;SDS011;3799;47.184;8.538;2023-07-24T06:06:29;7.72;;;4.20;;
7515;SDS011;3799;47.184;8.538;2023-07-24T06:08:57;7.45;;;3.95;;
7515;SDS011;3799;47.184;8.538;2023-07-24T06:11:24;7.65;;;3.72;;
7515;SDS011;3799;47.184;8.538;2023-07-24T06:13:53;8.85;;;3.03;;
7515;SDS011;3799;47.184;8.538;2023-07-24T06:16:20;8.15;;;3.47;;
7515;SDS011;3799;47.184;8.538;2023-07-24T06:18:48;7.20;;;3.53;;
7515;SDS011;3799;47.184;8.538;2023-07-24T06:21:15;6.45;;;3.33;;
7515;SDS011;3799;47.184;8.538;2023-07-24T06:23:42;9.35;;;3.90;;
7515;SDS011;3799;47.184;8.538;2023-07-24T06:26:09;7.03;;;4.05;;
7515;SDS011;3799;47.184;8.538;2023-07-24T06:28:37;8.88;;;3.70;;
7515;SDS011;3799;47.184;8.538;2023-07-24T06:31:04;9.02;;;3.88;;
7515;SDS011;3799;47.184;8.538;2023-07-24T06:33:34;9.65;;;4.40;;
7515;SDS011;3799;47.184;8.538;2023-07-24T06:36:03;7.68;;;4.18;;
7515;SDS011;3799;47.184;8.538;2023-07-24T06:38:35;8.73;;;4.38;;
7515;SDS011;3799;47.184;8.538;2023-07-24T06:41:02;7.95;;;4.15;;
7515;SDS011;3799;47.184;8.538;2023-07-24T06:43:29;7.07;;;3.97;;
7515;SDS011;3799;47.184;8.538;2023-07-24T06:45:57;10.15;;;5.03;;
7515;SDS011;3799;47.184;8.538;2023-07-24T06:48:24;7.47;;;3.80;;
7515;SDS011;3799;47.184;8.538;2023-07-24T06:50:51;7.13;;;3.75;;
7515;SDS011;3799;47.184;8.538;2023-07-24T06:53:18;8.05;;;4.15;;
7515;SDS011;3799;47.184;8.538;2023-07-24T06:58:15;9.77;;;4.40;;
7515;SDS011;3799;47.184;8.538;2023-07-24T07:00:43;8.95;;;4.07;;
7515;SDS011;3799;47.184;8.538;2023-07-24T07:03:10;7.90;;;4.20;;
7515;SDS011;3799;47.184;8.538;2023-07-24T07:05:37;10.02;;;4.85;;
7515;SDS011;3799;47.184;8.538;2023-07-24T07:08:04;6.38;;;4.40;;
7515;SDS011;3799;47.184;8.538;2023-07-24T07:10:32;7.97;;;4.18;;
7515;SDS011;3799;47.184;8.538;2023-07-24T07:13:01;6.93;;;4.05;;
7515;SDS011;3799;47.184;8.538;2023-07-24T07:15:28;8.13;;;4.20;;
7515;SDS011;3799;47.184;8.538;2023-07-24T07:17:56;8.38;;;4.15;;
7515;SDS011;3799;47.184;8.538;2023-07-24T07:20:23;7.25;;;3.83;;
7515;SDS011;3799;47.184;8.538;2023-07-24T07:22:53;8.73;;;4.40;;
7515;SDS011;3799;47.184;8.538;2023-07-24T07:25:27;7.90;;;4.03;;
7515;SDS011;3799;47.184;8.538;2023-07-24T07:27:54;8.75;;;4.13;;
7515;SDS011;3799;47.184;8.538;2023-07-24T07:30:21;8.95;;;4.00;;
7515;SDS011;3799;47.184;8.538;2023-07-24T07:32:49;8.27;;;3.75;;
7515;SDS011;3799;47.184;8.538;2023-07-24T07:35:25;6.47;;;3.85;;
7515;SDS011;3799;47.184;8.538;2023-07-24T07:37:53;8.73;;;4.03;;
7515;SDS011;3799;47.184;8.538;2023-07-24T07:40:20;7.60;;;3.95;;
7515;SDS011;3799;47.184;8.538;2023-07-24T07:42:47;9.30;;;4.63;;
7515;SDS011;3799;47.184;8.538;2023-07-24T07:45:14;8.60;;;4.22;;
7515;SDS011;3799;47.184;8.538;2023-07-24T07:47:41;8.43;;;4.25;;
7515;SDS011;3799;47.184;8.538;2023-07-24T07:50:09;8.23;;;3.67;;
7515;SDS011;3799;47.184;8.538;2023-07-24T07:52:37;10.60;;;4.18;;
7515;SDS011;3799;47.184;8.538;2023-07-24T07:55:04;8.90;;;4.45;;
7515;SDS011;3799;47.184;8.538;2023-07-24T07:57:35;7.90;;;4.18;;
7515;SDS011;3799;47.184;8.538;2023-07-24T08:00:05;6.10;;;3.30;;
7515;SDS011;3799;47.184;8.538;2023-07-24T08:02:32;7.97;;;4.22;;
7515;SDS011;3799;47.184;8.538;2023-07-24T08:05:01;9.38;;;4.63;;
7515;SDS011;3799;47.184;8.538;2023-07-24T08:07:39;8.55;;;4.28;;
7515;SDS011;3799;47.184;8.538;2023-07-24T08:10:07;8.05;;;4.22;;
7515;SDS011;3799;47.184;8.538;2023-07-24T08:12:34;8.40;;;4.43;;
7515;SDS011;3799;47.184;8.538;2023-07-24T08:15:01;9.43;;;4.05;;
7515;SDS011;3799;47.184;8.538;2023-07-24T08:17:29;7.57;;;4.75;;
7515;SDS011;3799;47.184;8.538;2023-07-24T08:19:56;8.23;;;3.92;;
7515;SDS011;3799;47.184;8.538;2023-07-24T08:22:23;9.32;;;3.90;;
7515;SDS011;3799;47.184;8.538;2023-07-24T08:24:51;7.40;;;4.43;;
7515;SDS011;3799;47.184;8.538;2023-07-24T08:27:22;7.68;;;4.30;;
7515;SDS011;3799;47.184;8.538;2023-07-24T08:29:52;7.35;;;4.45;;
7515;SDS011;3799;47.184;8.538;2023-07-24T08:32:19;9.05;;;4.32;;
7515;SDS011;3799;47.184;8.538;2023-07-24T08:34:49;10.80;;;4.45;;
7515;SDS011;3799;47.184;8.538;2023-07-24T08:37:16;7.00;;;3.78;;
7515;SDS011;3799;47.184;8.538;2023-07-24T08:39:43;6.93;;;3.63;;
7515;SDS011;3799;47.184;8.538;2023-07-24T08:42:11;8.88;;;4.60;;
7515;SDS011;3799;47.184;8.538;2023-07-24T08:44:39;8.73;;;4.50;;
7515;SDS011;3799;47.184;8.538;2023-07-24T08:47:09;8.93;;;4.38;;
7515;SDS011;3799;47.184;8.538;2023-07-24T08:49:39;9.30;;;4.80;;
7515;SDS011;3799;47.184;8.538;2023-07-24T08:52:09;6.80;;;4.45;;
7515;SDS011;3799;47.184;8.538;2023-07-24T08:54:52;8.13;;;4.13;;
7515;SDS011;3799;47.184;8.538;2023-07-24T08:57:26;7.63;;;4.20;;
7515;SDS011;3799;47.184;8.538;2023-07-24T08:59:53;8.95;;;4.57;;
7515;SDS011;3799;47.184;8.538;2023-07-24T09:02:21;8.10;;;4.28;;
7515;SDS011;3799;47.184;8.538;2023-07-24T09:04:48;6.80;;;4.32;;
7515;SDS011;3799;47.184;8.538;2023-07-24T09:07:15;8.15;;;4.57;;
7515;SDS011;3799;47.184;8.538;2023-07-24T09:09:43;9.27;;;4.57;;
7515;SDS011;3799;47.184;8.538;2023-07-24T09:12:13;9.52;;;4.28;;
7515;SDS011;3799;47.184;8.538;2023-07-24T09:14:42;9.32;;;5.45;;
7515;SDS011;3799;47.184;8.538;2023-07-24T09:17:11;9.30;;;4.05;;
7515;SDS011;3799;47.184;8.538;2023-07-24T09:19:40;8.90;;;4.53;;
7515;SDS011;3799;47.184;8.538;2023-07-24T09:22:14;11.88;;;4.72;;
7515;SDS011;3799;47.184;8.538;2023-07-24T09:27:19;11.25;;;4.53;;
7515;SDS011;3799;47.184;8.538;2023-07-24T09:29:47;11.93;;;5.88;;
7515;SDS011;3799;47.184;8.538;2023-07-24T09:32:24;10.50;;;4.95;;
7515;SDS011;3799;47.184;8.538;2023-07-24T09:34:52;8.02;;;4.72;;
7515;SDS011;3799;47.184;8.538;2023-07-24T09:37:24;9.65;;;4.70;;
7515;SDS011;3799;47.184;8.538;2023-07-24T09:39:52;9.13;;;5.13;;
7515;SDS011;3799;47.184;8.538;2023-07-24T09:42:35;9.00;;;4.68;;
7515;SDS011;3799;47.184;8.538;2023-07-24T09:45:23;10.20;;;5.40;;
7515;SDS011;3799;47.184;8.538;2023-07-24T09:47:52;8.57;;;5.15;;
7515;SDS011;3799;47.184;8.538;2023-07-24T09:50:30;7.68;;;4.30;;
7515;SDS011;3799;47.184;8.538;2023-07-24T09:52:58;8.25;;;4.40;;
7515;SDS011;3799;47.184;8.538;2023-07-24T09:55:28;6.50;;;4.53;;
7515;SDS011;3799;47.184;8.538;2023-07-24T09:58:01;6.70;;;4.13;;
7515;SDS011;3799;47.184;8.538;2023-07-24T10:00:30;10.07;;;5.00;;
7515;SDS011;3799;47.184;8.538;2023-07-24T10:02:58;8.52;;;5.57;;
7515;SDS011;3799;47.184;8.538;2023-07-24T10:05:26;9.23;;;4.50;;
7515;SDS011;3799;47.184;8.538;2023-07-24T10:07:55;13.52;;;5.68;;
7515;SDS011;3799;47.184;8.538;2023-07-24T10:10:22;9.35;;;5.50;;
7515;SDS011;3799;47.184;8.538;2023-07-24T10:12:52;9.30;;;5.80;;
7515;SDS011;3799;47.184;8.538;2023-07-24T10:15:22;10.23;;;5.60;;
7515;SDS011;3799;47.184;8.538;2023-07-24T10:18:01;13.18;;;5.18;;
7515;SDS011;3799;47.184;8.538;2023-07-24T10:20:36;12.20;;;5.70;;
7515;SDS011;3799;47.184;8.538;2023-07-24T10:23:08;11.60;;;5.70;;
7515;SDS011;3799;47.184;8.538;2023-07-24T10:25:37;8.80;;;4.88;;
7515;SDS011;3799;47.184;8.538;2023-07-24T10:28:10;11.05;;;5.63;;
7515;SDS011;3799;47.184;8.538;2023-07-24T10:30:40;9.88;;;5.40;;
7515;SDS011;3799;47.184;8.538;2023-07-24T10:33:09;8.82;;;4.88;;
7515;SDS011;3799;47.184;8.538;2023-07-24T10:35:44;9.38;;;4.75;;
7515;SDS011;3799;47.184;8.538;2023-07-24T10:38:31;9.40;;;5.57;;
7515;SDS011;3799;47.184;8.538;2023-07-24T10:41:06;11.50;;;5.50;;
7515;SDS011;3799;47.184;8.538;2023-07-24T10:43:42;9.68;;;4.70;;
7515;SDS011;3799;47.184;8.538;2023-07-24T10:46:14;9.73;;;5.22;;
7515;SDS011;3799;47.184;8.538;2023-07-24T10:48:50;7.22;;;4.40;;
7515;SDS011;3799;47.184;8.538;2023-07-24T10:51:19;8.60;;;4.30;;
7515;SDS011;3799;47.184;8.538;2023-07-24T10:53:48;7.22;;;4.00;;
7515;SDS011;3799;47.184;8.538;2023-07-24T10:56:16;8.80;;;4.85;;
7515;SDS011;3799;47.184;8.538;2023-07-24T10:58:43;7.53;;;4.65;;
7515;SDS011;3799;47.184;8.538;2023-07-24T11:01:12;7.57;;;3.75;;
7515;SDS011;3799;47.184;8.538;2023-07-24T11:03:41;7.55;;;3.72;;
7515;SDS011;3799;47.184;8.538;2023-07-24T11:06:19;6.85;;;3.97;;
7515;SDS011;3799;47.184;8.538;2023-07-24T11:08:52;8.13;;;4.40;;
7515;SDS011;3799;47.184;8.538;2023-07-24T11:11:35;6.20;;;3.83;;
7515;SDS011;3799;47.184;8.538;2023-07-24T11:14:03;7.60;;;3.88;;
7515;SDS011;3799;47.184;8.538;2023-07-24T11:16:30;6.70;;;3.60;;
7515;SDS011;3799;47.184;8.538;2023-07-24T11:19:00;6.78;;;3.92;;
7515;SDS011;3799;47.184;8.538;2023-07-24T11:21:29;6.13;;;3.78;;
7515;SDS011;3799;47.184;8.538;2023-07-24T11:23:57;7.72;;;3.90;;
7515;SDS011;3799;47.184;8.538;2023-07-24T11:26:26;8.38;;;3.53;;
7515;SDS011;3799;47.184;8.538;2023-07-24T11:28:54;8.75;;;3.30;;
7515;SDS011;3799;47.184;8.538;2023-07-24T11:31:21;6.20;;;3.38;;
7515;SDS011;3799;47.184;8.538;2023-07-24T11:33:49;6.25;;;3.10;;
7515;SDS011;3799;47.184;8.538;2023-07-24T11:36:18;6.05;;;3.15;;
7515;SDS011;3799;47.184;8.538;2023-07-24T11:38:49;5.53;;;3.00;;
7515;SDS011;3799;47.184;8.538;2023-07-24T11:41:16;9.15;;;3.25;;
7515;SDS011;3799;47.184;8.538;2023-07-24T11:43:45;6.22;;;3.33;;
7515;SDS011;3799;47.184;8.538;2023-07-24T11:46:27;6.03;;;2.95;;
7515;SDS011;3799;47.184;8.538;2023-07-24T11:48:56;5.05;;;3.10;;
7515;SDS011;3799;47.184;8.538;2023-07-24T11:51:25;8.18;;;2.88;;
7515;SDS011;3799;47.184;8.538;2023-07-24T11:54:05;5.38;;;2.80;;
7515;SDS011;3799;47.184;8.538;2023-07-24T11:56:34;7.20;;;3.15;;
7515;SDS011;3799;47.184;8.538;2023-07-24T12:01:47;6.47;;;3.03;;
7515;SDS011;3799;47.184;8.538;2023-07-24T12:04:15;6.47;;;3.25;;
7515;SDS011;3799;47.184;8.538;2023-07-24T12:06:43;5.57;;;2.70;;
7515;SDS011;3799;47.184;8.538;2023-07-24T12:09:11;6.47;;;3.00;;
7515;SDS011;3799;47.184;8.538;2023-07-24T12:11:39;8.75;;;3.50;;
7515;SDS011;3799;47.184;8.538;2023-07-24T12:14:11;6.32;;;3.35;;
7515;SDS011;3799;47.184;8.538;2023-07-24T12:16:39;5.65;;;2.70;;
7515;SDS011;3799;47.184;8.538;2023-07-24T12:19:07;6.25;;;3.05;;
7515;SDS011;3799;47.184;8.538;2023-07-24T12:21:34;6.65;;;2.72;;
7515;SDS011;3799;47.184;8.538;2023-07-24T12:24:01;4.85;;;2.60;;
7515;SDS011;3799;47.184;8.538;2023-07-24T12:26:29;6.10;;;3.30;;
7515;SDS011;3799;47.184;8.538;2023-07-24T12:28:56;5.60;;;3.13;;
7515;SDS011;3799;47.184;8.538;2023-07-24T12:31:24;8.43;;;2.85;;
7515;SDS011;3799;47.184;8.538;2023-07-24T12:33:56;8.07;;;2.83;;
7515;SDS011;3799;47.184;8.538;2023-07-24T12:36:23;6.88;;;3.40;;
7515;SDS011;3799;47.184;8.538;2023-07-24T12:38:50;6.25;;;3.22;;
7515;SDS011;3799;47.184;8.538;2023-07-24T12:41:18;6.10;;;3.00;;
7515;SDS011;3799;47.184;8.538;2023-07-24T12:43:45;5.75;;;3.17;;
7515;SDS011;3799;47.184;8.538;2023-07-24T12:46:12;6.68;;;3.45;;
7515;SDS011;3799;47.184;8.538;2023-07-24T12:48:39;5.93;;;3.15;;
7515;SDS011;3799;47.184;8.538;2023-07-24T12:51:06;6.68;;;3.28;;
7515;SDS011;3799;47.184;8.538;2023-07-24T12:53:34;5.53;;;2.80;;
7515;SDS011;3799;47.184;8.538;2023-07-24T12:56:19;5.80;;;3.25;;
7515;SDS011;3799;47.184;8.538;2023-07-24T12:58:48;6.60;;;3.30;;
7515;SDS011;3799;47.184;8.538;2023-07-24T13:01:15;5.70;;;2.90;;
7515;SDS011;3799;47.184;8.538;2023-07-24T13:03:42;6.20;;;3.08;;
7515;SDS011;3799;47.184;8.538;2023-07-24T13:06:12;4.78;;;3.13;;
7515;SDS011;3799;47.184;8.538;2023-07-24T13:08:40;4.50;;;2.78;;
7515;SDS011;3799;47.184;8.538;2023-07-24T13:11:07;10.93;;;3.30;;
7515;SDS011;3799;47.184;8.538;2023-07-24T13:13:34;5.60;;;2.58;;
7515;SDS011;3799;47.184;8.538;2023-07-24T13:16:02;4.43;;;2.58;;
7515;SDS011;3799;47.184;8.538;2023-07-24T13:18:30;4.80;;;2.85;;
7515;SDS011;3799;47.184;8.538;2023-07-24T13:20:57;5.30;;;2.80;;
7515;SDS011;3799;47.184;8.538;2023-07-24T13:23:28;4.85;;;3.05;;
7515;SDS011;3799;47.184;8.538;2023-07-24T13:25:55;5.47;;;3.05;;
7515;SDS011;3799;47.184;8.538;2023-07-24T13:28:22;5.55;;;2.78;;
7515;SDS011;3799;47.184;8.538;2023-07-24T13:30:50;5.97;;;2.80;;
7515;SDS011;3799;47.184;8.538;2023-07-24T13:33:17;7.13;;;3.08;;
7515;SDS011;3799;47.184;8.538;2023-07-24T13:35:47;7.70;;;3.42;;
7515;SDS011;3799;47.184;8.538;2023-07-24T13:38:15;5.70;;;2.53;;
7515;SDS011;3799;47.184;8.538;2023-07-24T13:40:46;7.65;;;2.90;;
7515;SDS011;3799;47.184;8.538;2023-07-24T13:43:16;5.63;;;2.50;;
7515;SDS011;3799;47.184;8.538;2023-07-24T13:45:45;5.13;;;2.85;;
7515;SDS011;3799;47.184;8.538;2023-07-24T13:48:12;4.25;;;2.58;;
7515;SDS011;3799;47.184;8.538;2023-07-24T13:50:39;4.80;;;2.33;;
7515;SDS011;3799;47.184;8.538;2023-07-24T13:53:07;5.30;;;2.72;;
7515;SDS011;3799;47.184;8.538;2023-07-24T13:55:34;5.05;;;2.33;;
7515;SDS011;3799;47.184;8.538;2023-07-24T13:58:02;5.50;;;2.30;;
7515;SDS011;3799;47.184;8.538;2023-07-24T14:00:30;5.13;;;2.70;;
7515;SDS011;3799;47.184;8.538;2023-07-24T14:02:57;4.80;;;2.63;;
7515;SDS011;3799;47.184;8.538;2023-07-24T14:05:25;9.02;;;2.80;;
7515;SDS011;3799;47.184;8.538;2023-07-24T14:07:52;4.70;;;2.78;;
7515;SDS011;3799;47.184;8.538;2023-07-24T14:10:22;4.63;;;2.42;;
7515;SDS011;3799;47.184;8.538;2023-07-24T14:12:49;4.53;;;2.33;;
7515;SDS011;3799;47.184;8.538;2023-07-24T14:15:19;4.78;;;2.45;;
7515;SDS011;3799;47.184;8.538;2023-07-24T14:17:49;7.22;;;2.88;;
7515;SDS011;3799;47.184;8.538;2023-07-24T14:20:16;6.40;;;2.72;;
7515;SDS011;3799;47.184;8.538;2023-07-24T14:22:43;5.63;;;2.53;;
7515;SDS011;3799;47.184;8.538;2023-07-24T14:25:10;6.70;;;2.88;;
7515;SDS011;3799;47.184;8.538;2023-07-24T14:27:38;5.40;;;2.45;;
7515;SDS011;3799;47.184;8.538;2023-07-24T14:30:05;5.55;;;2.55;;
7515;SDS011;3799;47.184;8.538;2023-07-24T14:32:34;7.10;;;3.08;;
7515;SDS011;3799;47.184;8.538;2023-07-24T14:35:01;5.03;;;2.67;;
7515;SDS011;3799;47.184;8.538;2023-07-24T14:37:31;6.60;;;2.55;;
7515;SDS011;3799;47.184;8.538;2023-07-24T14:39:59;6.45;;;3.20;;
7515;SDS011;3799;47.184;8.538;2023-07-24T14:42:26;7.60;;;3.28;;
7515;SDS011;3799;47.184;8.538;2023-07-24T14:47:28;7.53;;;2.20;;
7515;SDS011;3799;47.184;8.538;2023-07-24T14:49:56;5.10;;;2.38;;
7515;SDS011;3799;47.184;8.538;2023-07-24T14:52:25;6.45;;;2.65;;
7515;SDS011;3799;47.184;8.538;2023-07-24T14:54:52;4.78;;;1.70;;
7515;SDS011;3799;47.184;8.538;2023-07-24T14:57:20;4.25;;;1.92;;
7515;SDS011;3799;47.184;8.538;2023-07-24T14:59:51;3.60;;;1.70;;
7515;SDS011;3799;47.184;8.538;2023-07-24T15:02:19;4.13;;;2.17;;
7515;SDS011;3799;47.184;8.538;2023-07-24T15:04:46;6.35;;;2.45;;
7515;SDS011;3799;47.184;8.538;2023-07-24T15:07:14;4.40;;;2.00;;
7515;SDS011;3799;47.184;8.538;2023-07-24T15:09:41;5.22;;;1.60;;
7515;SDS011;3799;47.184;8.538;2023-07-24T15:12:09;4.38;;;2.35;;
7515;SDS011;3799;47.184;8.538;2023-07-24T15:14:36;3.75;;;1.73;;
7515;SDS011;3799;47.184;8.538;2023-07-24T15:17:04;4.07;;;2.17;;
7515;SDS011;3799;47.184;8.538;2023-07-24T15:19:31;5.57;;;2.35;;
7515;SDS011;3799;47.184;8.538;2023-07-24T15:21:58;4.15;;;2.00;;
7515;SDS011;3799;47.184;8.538;2023-07-24T15:24:25;4.45;;;2.25;;
7515;SDS011;3799;47.184;8.538;2023-07-24T15:26:53;3.92;;;2.08;;
7515;SDS011;3799;47.184;8.538;2023-07-24T15:29:20;4.97;;;2.20;;
7515;SDS011;3799;47.184;8.538;2023-07-24T15:31:48;4.32;;;2.00;;
7515;SDS011;3799;47.184;8.538;2023-07-24T15:34:15;4.82;;;2.30;;
7515;SDS011;3799;47.184;8.538;2023-07-24T15:36:42;4.50;;;2.10;;
7515;SDS011;3799;47.184;8.538;2023-07-24T15:39:10;3.78;;;1.70;;
7515;SDS011;3799;47.184;8.538;2023-07-24T15:41:37;3.90;;;2.03;;
7515;SDS011;3799;47.184;8.538;2023-07-24T15:44:05;4.65;;;2.05;;